sensor_id;sensor_type;location;lat;lon;timestamp;P1;durP1;ratioP1;P2;durP2;ratioP2
51838;SDS011;37886;53.174;6.368;2022-11-20T00:00:55;37.50;;;23.90;;
51838;SDS011;37886;53.174;6.368;2022-11-20T00:03:21;38.35;;;23.38;;
51838;SDS011;37886;53.174;6.368;2022-11-20T00:05:47;40.72;;;23.33;;
51838;SDS011;37886;53.174;6.368;2022-11-20T00:08:13;39.90;;;23.80;;
51838;SDS011;37886;53.174;6.368;2022-11-20T00:10:39;44.47;;;25.60;;
51838;SDS011;37886;53.174;6.368;2022-11-20T00:13:06;40.72;;;23.75;;
51838;SDS011;37886;53.174;6.368;2022-11-20T00:15:32;40.75;;;24.40;;
51838;SDS011;37886;53.174;6.368;2022-11-20T00:17:58;43.70;;;25.60;;
51838;SDS011;37886;53.174;6.368;2022-11-20T00:20:24;39.03;;;23.30;;
51838;SDS011;37886;53.174;6.368;2022-11-20T00:22:50;42.63;;;25.35;;
51838;SDS011;37886;53.174;6.368;2022-11-20T00:25:16;72.68;;;39.65;;
51838;SDS011;37886;53.174;6.368;2022-11-20T00:27:42;78.95;;;40.50;;
51838;SDS011;37886;53.174;6.368;2022-11-20T00:30:07;40.80;;;25.17;;
51838;SDS011;37886;53.174;6.368;2022-11-20T00:32:33;45.05;;;25.60;;
51838;SDS011;37886;53.174;6.368;2022-11-20T00:34:59;44.45;;;25.73;;
51838;SDS011;37886;53.174;6.368;2022-11-20T00:37:25;35.60;;;22.05;;
51838;SDS011;37886;53.174;6.368;2022-11-20T00:39:51;38.75;;;21.77;;
51838;SDS011;37886;53.174;6.368;2022-11-20T00:42:17;38.28;;;23.00;;
51838;SDS011;37886;53.174;6.368;2022-11-20T00:44:42;38.78;;;22.90;;
51838;SDS011;37886;53.174;6.368;2022-11-20T00:47:08;43.03;;;23.52;;
51838;SDS011;37886;53.174;6.368;2022-11-20T00:49:34;36.42;;;22.48;;
51838;SDS011;37886;53.174;6.368;2022-11-20T00:51:59;36.80;;;21.13;;
51838;SDS011;37886;53.174;6.368;2022-11-20T00:54:25;34.97;;;22.70;;
51838;SDS011;37886;53.174;6.368;2022-11-20T00:56:52;35.72;;;22.52;;
51838;SDS011;37886;53.174;6.368;2022-11-20T00:59:18;33.97;;;21.45;;
51838;SDS011;37886;53.174;6.368;2022-11-20T01:01:44;30.25;;;21.30;;
51838;SDS011;37886;53.174;6.368;2022-11-20T01:04:10;35.88;;;22.60;;
51838;SDS011;37886;53.174;6.368;2022-11-20T01:06:37;31.42;;;20.23;;
51838;SDS011;37886;53.174;6.368;2022-11-20T01:09:05;29.27;;;20.50;;
51838;SDS011;37886;53.174;6.368;2022-11-20T01:11:34;30.38;;;19.60;;
51838;SDS011;37886;53.174;6.368;2022-11-20T01:14:02;32.17;;;20.38;;
51838;SDS011;37886;53.174;6.368;2022-11-20T01:16:34;30.70;;;20.83;;
51838;SDS011;37886;53.174;6.368;2022-11-20T01:19:05;32.45;;;20.60;;
51838;SDS011;37886;53.174;6.368;2022-11-20T01:21:34;34.70;;;21.35;;
51838;SDS011;37886;53.174;6.368;2022-11-20T01:24:01;33.60;;;22.00;;
51838;SDS011;37886;53.174;6.368;2022-11-20T01:26:30;34.10;;;21.13;;
51838;SDS011;37886;53.174;6.368;2022-11-20T01:29:00;33.30;;;21.67;;
51838;SDS011;37886;53.174;6.368;2022-11-20T01:31:30;39.42;;;22.30;;
51838;SDS011;37886;53.174;6.368;2022-11-20T01:33:59;34.35;;;21.52;;
51838;SDS011;37886;53.174;6.368;2022-11-20T01:36:27;31.40;;;19.90;;
51838;SDS011;37886;53.174;6.368;2022-11-20T01:38:55;32.40;;;20.48;;
51838;SDS011;37886;53.174;6.368;2022-11-20T01:41:23;32.70;;;21.15;;
51838;SDS011;37886;53.174;6.368;2022-11-20T01:44:08;31.00;;;19.65;;
51838;SDS011;37886;53.174;6.368;2022-11-20T01:46:37;32.35;;;20.20;;
51838;SDS011;37886;53.174;6.368;2022-11-20T01:51:42;32.53;;;20.40;;
51838;SDS011;37886;53.174;6.368;2022-11-20T01:54:10;31.05;;;20.45;;
51838;SDS011;37886;53.174;6.368;2022-11-20T01:56:41;28.02;;;18.88;;
51838;SDS011;37886;53.174;6.368;2022-11-20T01:59:09;30.55;;;19.73;;
51838;SDS011;37886;53.174;6.368;2022-11-20T02:01:37;34.42;;;20.60;;
51838;SDS011;37886;53.174;6.368;2022-11-20T02:04:04;29.05;;;19.98;;
51838;SDS011;37886;53.174;6.368;2022-11-20T02:06:33;31.83;;;19.73;;
51838;SDS011;37886;53.174;6.368;2022-11-20T02:09:04;30.88;;;19.65;;
51838;SDS011;37886;53.174;6.368;2022-11-20T02:11:30;35.00;;;19.92;;
51838;SDS011;37886;53.174;6.368;2022-11-20T02:13:56;35.38;;;19.40;;
51838;SDS011;37886;53.174;6.368;2022-11-20T02:19:11;29.00;;;19.05;;
51838;SDS011;37886;53.174;6.368;2022-11-20T02:21:53;29.30;;;20.23;;
51838;SDS011;37886;53.174;6.368;2022-11-20T02:24:27;30.33;;;19.65;;
51838;SDS011;37886;53.174;6.368;2022-11-20T02:26:53;27.60;;;18.35;;
51838;SDS011;37886;53.174;6.368;2022-11-20T02:29:53;30.08;;;19.60;;
51838;SDS011;37886;53.174;6.368;2022-11-20T02:32:33;29.85;;;19.60;;
51838;SDS011;37886;53.174;6.368;2022-11-20T02:37:44;29.23;;;19.50;;
51838;SDS011;37886;53.174;6.368;2022-11-20T02:40:13;29.00;;;19.08;;
51838;SDS011;37886;53.174;6.368;2022-11-20T02:42:39;26.98;;;19.02;;
51838;SDS011;37886;53.174;6.368;2022-11-20T02:45:04;29.10;;;18.33;;
51838;SDS011;37886;53.174;6.368;2022-11-20T02:47:31;27.92;;;18.15;;
51838;SDS011;37886;53.174;6.368;2022-11-20T02:49:57;28.48;;;18.95;;
51838;SDS011;37886;53.174;6.368;2022-11-20T02:52:23;27.48;;;18.92;;
51838;SDS011;37886;53.174;6.368;2022-11-20T02:54:49;28.13;;;18.15;;
51838;SDS011;37886;53.174;6.368;2022-11-20T02:57:14;26.90;;;17.88;;
51838;SDS011;37886;53.174;6.368;2022-11-20T02:59:40;27.55;;;18.65;;
51838;SDS011;37886;53.174;6.368;2022-11-20T03:02:06;29.05;;;19.17;;
51838;SDS011;37886;53.174;6.368;2022-11-20T03:04:32;24.98;;;17.48;;
51838;SDS011;37886;53.174;6.368;2022-11-20T03:06:57;27.45;;;17.60;;
51838;SDS011;37886;53.174;6.368;2022-11-20T03:09:23;24.92;;;16.05;;
51838;SDS011;37886;53.174;6.368;2022-11-20T03:11:48;24.35;;;17.50;;
51838;SDS011;37886;53.174;6.368;2022-11-20T03:14:14;28.70;;;17.85;;
51838;SDS011;37886;53.174;6.368;2022-11-20T03:16:40;25.90;;;18.25;;
51838;SDS011;37886;53.174;6.368;2022-11-20T03:19:06;24.92;;;16.70;;
51838;SDS011;37886;53.174;6.368;2022-11-20T03:21:35;27.08;;;18.10;;
51838;SDS011;37886;53.174;6.368;2022-11-20T03:24:01;26.00;;;17.45;;
51838;SDS011;37886;53.174;6.368;2022-11-20T03:26:27;25.83;;;17.17;;
51838;SDS011;37886;53.174;6.368;2022-11-20T03:28:54;25.20;;;17.00;;
51838;SDS011;37886;53.174;6.368;2022-11-20T03:31:25;27.33;;;18.23;;
51838;SDS011;37886;53.174;6.368;2022-11-20T03:34:02;25.17;;;16.75;;
51838;SDS011;37886;53.174;6.368;2022-11-20T03:36:28;27.33;;;18.90;;
51838;SDS011;37886;53.174;6.368;2022-11-20T03:38:56;31.23;;;19.67;;
51838;SDS011;37886;53.174;6.368;2022-11-20T03:41:29;28.17;;;18.15;;
51838;SDS011;37886;53.174;6.368;2022-11-20T03:43:57;27.27;;;17.73;;
51838;SDS011;37886;53.174;6.368;2022-11-20T03:46:24;24.65;;;16.75;;
51838;SDS011;37886;53.174;6.368;2022-11-20T03:48:52;26.38;;;17.67;;
51838;SDS011;37886;53.174;6.368;2022-11-20T03:51:19;26.38;;;17.67;;
51838;SDS011;37886;53.174;6.368;2022-11-20T03:53:50;24.58;;;17.17;;
51838;SDS011;37886;53.174;6.368;2022-11-20T03:56:18;27.90;;;17.92;;
51838;SDS011;37886;53.174;6.368;2022-11-20T03:58:45;24.52;;;17.40;;
51838;SDS011;37886;53.174;6.368;2022-11-20T04:03:43;23.60;;;16.48;;
51838;SDS011;37886;53.174;6.368;2022-11-20T04:06:10;23.58;;;16.80;;
51838;SDS011;37886;53.174;6.368;2022-11-20T04:08:43;20.98;;;15.93;;
51838;SDS011;37886;53.174;6.368;2022-11-20T04:11:12;23.35;;;15.50;;
51838;SDS011;37886;53.174;6.368;2022-11-20T04:13:42;19.08;;;13.98;;
51838;SDS011;37886;53.174;6.368;2022-11-20T04:16:10;22.08;;;14.90;;
51838;SDS011;37886;53.174;6.368;2022-11-20T04:18:36;20.05;;;13.25;;
51838;SDS011;37886;53.174;6.368;2022-11-20T04:21:02;21.27;;;13.55;;
51838;SDS011;37886;53.174;6.368;2022-11-20T04:23:29;21.35;;;14.43;;
51838;SDS011;37886;53.174;6.368;2022-11-20T04:25:54;20.35;;;13.35;;
51838;SDS011;37886;53.174;6.368;2022-11-20T04:28:25;22.38;;;14.85;;
51838;SDS011;37886;53.174;6.368;2022-11-20T04:30:50;20.25;;;14.13;;
51838;SDS011;37886;53.174;6.368;2022-11-20T04:33:16;23.52;;;14.60;;
51838;SDS011;37886;53.174;6.368;2022-11-20T04:35:48;20.58;;;13.55;;
51838;SDS011;37886;53.174;6.368;2022-11-20T04:38:14;24.50;;;14.82;;
51838;SDS011;37886;53.174;6.368;2022-11-20T04:40:39;18.40;;;13.20;;
51838;SDS011;37886;53.174;6.368;2022-11-20T04:43:05;19.27;;;12.52;;
51838;SDS011;37886;53.174;6.368;2022-11-20T04:45:31;19.63;;;12.98;;
51838;SDS011;37886;53.174;6.368;2022-11-20T04:47:56;18.27;;;12.77;;
51838;SDS011;37886;53.174;6.368;2022-11-20T04:50:22;19.92;;;13.65;;
51838;SDS011;37886;53.174;6.368;2022-11-20T04:52:47;21.45;;;13.48;;
51838;SDS011;37886;53.174;6.368;2022-11-20T04:55:13;20.80;;;14.65;;
51838;SDS011;37886;53.174;6.368;2022-11-20T04:57:39;20.05;;;13.98;;
51838;SDS011;37886;53.174;6.368;2022-11-20T05:00:05;20.27;;;14.50;;
51838;SDS011;37886;53.174;6.368;2022-11-20T05:02:31;18.58;;;13.02;;
51838;SDS011;37886;53.174;6.368;2022-11-20T05:04:57;18.67;;;13.07;;
51838;SDS011;37886;53.174;6.368;2022-11-20T05:07:22;19.70;;;13.50;;
51838;SDS011;37886;53.174;6.368;2022-11-20T05:09:48;21.08;;;14.63;;
51838;SDS011;37886;53.174;6.368;2022-11-20T05:12:14;21.40;;;13.80;;
51838;SDS011;37886;53.174;6.368;2022-11-20T05:14:39;22.23;;;13.50;;
51838;SDS011;37886;53.174;6.368;2022-11-20T05:17:05;18.05;;;13.10;;
51838;SDS011;37886;53.174;6.368;2022-11-20T05:19:30;20.88;;;13.30;;
51838;SDS011;37886;53.174;6.368;2022-11-20T05:21:56;16.23;;;12.77;;
51838;SDS011;37886;53.174;6.368;2022-11-20T05:24:22;20.10;;;13.52;;
51838;SDS011;37886;53.174;6.368;2022-11-20T05:26:47;20.58;;;14.38;;
51838;SDS011;37886;53.174;6.368;2022-11-20T05:29:13;19.77;;;14.00;;
51838;SDS011;37886;53.174;6.368;2022-11-20T05:31:39;16.92;;;12.00;;
51838;SDS011;37886;53.174;6.368;2022-11-20T05:34:05;18.52;;;13.23;;
51838;SDS011;37886;53.174;6.368;2022-11-20T05:36:32;19.73;;;13.18;;
51838;SDS011;37886;53.174;6.368;2022-11-20T05:38:58;20.15;;;13.75;;
51838;SDS011;37886;53.174;6.368;2022-11-20T05:41:24;30.92;;;17.10;;
51838;SDS011;37886;53.174;6.368;2022-11-20T05:43:50;45.47;;;21.05;;
51838;SDS011;37886;53.174;6.368;2022-11-20T05:46:17;54.90;;;23.67;;
51838;SDS011;37886;53.174;6.368;2022-11-20T05:48:45;88.28;;;35.20;;
51838;SDS011;37886;53.174;6.368;2022-11-20T05:51:12;20.15;;;13.88;;
51838;SDS011;37886;53.174;6.368;2022-11-20T05:53:43;19.33;;;12.98;;
51838;SDS011;37886;53.174;6.368;2022-11-20T05:56:13;16.73;;;12.48;;
51838;SDS011;37886;53.174;6.368;2022-11-20T05:58:41;18.50;;;12.70;;
51838;SDS011;37886;53.174;6.368;2022-11-20T06:01:08;21.23;;;12.63;;
51838;SDS011;37886;53.174;6.368;2022-11-20T06:03:40;18.52;;;12.15;;
51838;SDS011;37886;53.174;6.368;2022-11-20T06:06:08;21.02;;;12.30;;
51838;SDS011;37886;53.174;6.368;2022-11-20T06:08:34;18.52;;;13.32;;
51838;SDS011;37886;53.174;6.368;2022-11-20T06:11:07;17.65;;;12.75;;
51838;SDS011;37886;53.174;6.368;2022-11-20T06:13:37;17.05;;;11.95;;
51838;SDS011;37886;53.174;6.368;2022-11-20T06:16:03;17.00;;;13.02;;
51838;SDS011;37886;53.174;6.368;2022-11-20T06:18:31;16.58;;;12.50;;
51838;SDS011;37886;53.174;6.368;2022-11-20T06:21:01;18.70;;;12.40;;
51838;SDS011;37886;53.174;6.368;2022-11-20T06:23:29;20.23;;;12.82;;
51838;SDS011;37886;53.174;6.368;2022-11-20T06:25:56;18.77;;;13.00;;
51838;SDS011;37886;53.174;6.368;2022-11-20T06:28:24;19.15;;;12.43;;
51838;SDS011;37886;53.174;6.368;2022-11-20T06:30:49;20.15;;;13.52;;
51838;SDS011;37886;53.174;6.368;2022-11-20T06:33:15;18.27;;;12.63;;
51838;SDS011;37886;53.174;6.368;2022-11-20T06:35:40;23.75;;;12.95;;
51838;SDS011;37886;53.174;6.368;2022-11-20T06:38:06;18.00;;;12.70;;
51838;SDS011;37886;53.174;6.368;2022-11-20T06:40:32;17.67;;;12.52;;
51838;SDS011;37886;53.174;6.368;2022-11-20T06:42:57;17.73;;;12.50;;
51838;SDS011;37886;53.174;6.368;2022-11-20T06:45:23;17.48;;;12.93;;
51838;SDS011;37886;53.174;6.368;2022-11-20T06:47:49;16.67;;;11.85;;
51838;SDS011;37886;53.174;6.368;2022-11-20T06:50:14;18.10;;;12.82;;
51838;SDS011;37886;53.174;6.368;2022-11-20T06:52:40;18.23;;;12.68;;
51838;SDS011;37886;53.174;6.368;2022-11-20T06:55:06;19.08;;;12.75;;
51838;SDS011;37886;53.174;6.368;2022-11-20T06:57:32;17.73;;;12.75;;
51838;SDS011;37886;53.174;6.368;2022-11-20T06:59:58;22.13;;;17.02;;
51838;SDS011;37886;53.174;6.368;2022-11-20T07:02:23;21.40;;;13.90;;
51838;SDS011;37886;53.174;6.368;2022-11-20T07:04:49;19.83;;;14.15;;
51838;SDS011;37886;53.174;6.368;2022-11-20T07:07:15;19.27;;;14.80;;
51838;SDS011;37886;53.174;6.368;2022-11-20T07:09:43;17.45;;;12.98;;
51838;SDS011;37886;53.174;6.368;2022-11-20T07:12:09;43.22;;;24.05;;
51838;SDS011;37886;53.174;6.368;2022-11-20T07:14:34;38.40;;;23.05;;
51838;SDS011;37886;53.174;6.368;2022-11-20T07:17:00;19.33;;;13.82;;
51838;SDS011;37886;53.174;6.368;2022-11-20T07:19:26;28.73;;;18.38;;
51838;SDS011;37886;53.174;6.368;2022-11-20T07:21:51;20.48;;;15.05;;
51838;SDS011;37886;53.174;6.368;2022-11-20T07:24:17;21.02;;;14.52;;
51838;SDS011;37886;53.174;6.368;2022-11-20T07:26:45;19.33;;;14.32;;
51838;SDS011;37886;53.174;6.368;2022-11-20T07:29:14;21.20;;;15.82;;
51838;SDS011;37886;53.174;6.368;2022-11-20T07:31:40;21.85;;;16.95;;
51838;SDS011;37886;53.174;6.368;2022-11-20T07:34:06;26.45;;;19.08;;
51838;SDS011;37886;53.174;6.368;2022-11-20T07:36:31;32.72;;;24.02;;
51838;SDS011;37886;53.174;6.368;2022-11-20T07:39:00;26.73;;;19.27;;
51838;SDS011;37886;53.174;6.368;2022-11-20T07:41:29;22.85;;;15.77;;
51838;SDS011;37886;53.174;6.368;2022-11-20T07:43:55;19.63;;;13.52;;
51838;SDS011;37886;53.174;6.368;2022-11-20T07:46:20;21.33;;;13.15;;
51838;SDS011;37886;53.174;6.368;2022-11-20T07:48:46;20.50;;;15.15;;
51838;SDS011;37886;53.174;6.368;2022-11-20T07:51:12;19.77;;;14.55;;
51838;SDS011;37886;53.174;6.368;2022-11-20T07:53:38;21.33;;;14.77;;
51838;SDS011;37886;53.174;6.368;2022-11-20T07:56:04;18.73;;;13.02;;
51838;SDS011;37886;53.174;6.368;2022-11-20T07:58:30;17.58;;;12.32;;
51838;SDS011;37886;53.174;6.368;2022-11-20T08:00:58;20.08;;;12.98;;
51838;SDS011;37886;53.174;6.368;2022-11-20T08:03:28;17.30;;;12.95;;
51838;SDS011;37886;53.174;6.368;2022-11-20T08:05:56;19.67;;;13.30;;
51838;SDS011;37886;53.174;6.368;2022-11-20T08:08:24;18.45;;;13.02;;
51838;SDS011;37886;53.174;6.368;2022-11-20T08:10:50;20.02;;;13.65;;
51838;SDS011;37886;53.174;6.368;2022-11-20T08:13:16;24.13;;;15.88;;
51838;SDS011;37886;53.174;6.368;2022-11-20T08:16:00;21.02;;;14.65;;
51838;SDS011;37886;53.174;6.368;2022-11-20T08:18:26;21.30;;;15.57;;
51838;SDS011;37886;53.174;6.368;2022-11-20T08:20:51;20.25;;;14.40;;
51838;SDS011;37886;53.174;6.368;2022-11-20T08:23:17;18.80;;;14.00;;
51838;SDS011;37886;53.174;6.368;2022-11-20T08:25:43;19.23;;;13.88;;
51838;SDS011;37886;53.174;6.368;2022-11-20T08:28:09;18.90;;;13.70;;
51838;SDS011;37886;53.174;6.368;2022-11-20T08:30:35;19.70;;;13.98;;
51838;SDS011;37886;53.174;6.368;2022-11-20T08:33:05;17.88;;;13.15;;
51838;SDS011;37886;53.174;6.368;2022-11-20T08:35:36;19.77;;;14.18;;
51838;SDS011;37886;53.174;6.368;2022-11-20T08:38:06;19.00;;;13.17;;
51838;SDS011;37886;53.174;6.368;2022-11-20T08:40:32;20.58;;;13.35;;
51838;SDS011;37886;53.174;6.368;2022-11-20T08:42:58;22.77;;;15.13;;
51838;SDS011;37886;53.174;6.368;2022-11-20T08:45:25;22.67;;;15.25;;
51838;SDS011;37886;53.174;6.368;2022-11-20T08:47:51;24.60;;;15.15;;
51838;SDS011;37886;53.174;6.368;2022-11-20T08:50:17;20.70;;;13.88;;
51838;SDS011;37886;53.174;6.368;2022-11-20T08:52:43;19.70;;;14.48;;
51838;SDS011;37886;53.174;6.368;2022-11-20T08:55:09;24.35;;;15.27;;
51838;SDS011;37886;53.174;6.368;2022-11-20T08:57:35;23.02;;;15.02;;
51838;SDS011;37886;53.174;6.368;2022-11-20T09:00:02;19.77;;;14.43;;
51838;SDS011;37886;53.174;6.368;2022-11-20T09:02:30;19.83;;;13.65;;
51838;SDS011;37886;53.174;6.368;2022-11-20T09:05:00;21.17;;;13.85;;
51838;SDS011;37886;53.174;6.368;2022-11-20T09:07:27;21.00;;;14.05;;
51838;SDS011;37886;53.174;6.368;2022-11-20T09:09:53;17.13;;;13.20;;
51838;SDS011;37886;53.174;6.368;2022-11-20T09:12:19;21.00;;;14.27;;
51838;SDS011;37886;53.174;6.368;2022-11-20T09:14:44;20.25;;;14.13;;
51838;SDS011;37886;53.174;6.368;2022-11-20T09:17:10;18.30;;;12.40;;
51838;SDS011;37886;53.174;6.368;2022-11-20T09:19:38;19.42;;;13.60;;
51838;SDS011;37886;53.174;6.368;2022-11-20T09:22:04;19.80;;;14.02;;
51838;SDS011;37886;53.174;6.368;2022-11-20T09:24:30;20.30;;;13.85;;
51838;SDS011;37886;53.174;6.368;2022-11-20T09:26:56;20.30;;;13.82;;
51838;SDS011;37886;53.174;6.368;2022-11-20T09:29:22;18.65;;;13.45;;
51838;SDS011;37886;53.174;6.368;2022-11-20T09:31:48;20.88;;;14.85;;
51838;SDS011;37886;53.174;6.368;2022-11-20T09:34:13;19.38;;;13.80;;
51838;SDS011;37886;53.174;6.368;2022-11-20T09:36:39;21.63;;;13.13;;
51838;SDS011;37886;53.174;6.368;2022-11-20T09:39:05;18.15;;;13.35;;
51838;SDS011;37886;53.174;6.368;2022-11-20T09:44:40;17.88;;;12.63;;
51838;SDS011;37886;53.174;6.368;2022-11-20T09:47:48;20.80;;;14.98;;
51838;SDS011;37886;53.174;6.368;2022-11-20T09:50:38;20.58;;;12.77;;
51838;SDS011;37886;53.174;6.368;2022-11-20T09:53:30;18.08;;;12.88;;
51838;SDS011;37886;53.174;6.368;2022-11-20T09:56:00;17.45;;;12.43;;
51838;SDS011;37886;53.174;6.368;2022-11-20T09:58:44;20.23;;;13.25;;
51838;SDS011;37886;53.174;6.368;2022-11-20T10:01:15;20.85;;;12.52;;
51838;SDS011;37886;53.174;6.368;2022-11-20T10:03:50;17.15;;;12.82;;
51838;SDS011;37886;53.174;6.368;2022-11-20T10:09:30;17.08;;;12.68;;
51838;SDS011;37886;53.174;6.368;2022-11-20T10:14:35;21.73;;;13.98;;
51838;SDS011;37886;53.174;6.368;2022-11-20T10:20:17;19.73;;;13.68;;
51838;SDS011;37886;53.174;6.368;2022-11-20T10:30:45;16.00;;;12.07;;
51838;SDS011;37886;53.174;6.368;2022-11-20T10:33:20;19.45;;;11.73;;
51838;SDS011;37886;53.174;6.368;2022-11-20T10:38:25;17.42;;;12.48;;
51838;SDS011;37886;53.174;6.368;2022-11-20T10:41:20;17.17;;;12.95;;
51838;SDS011;37886;53.174;6.368;2022-11-20T10:44:09;19.33;;;11.85;;
51838;SDS011;37886;53.174;6.368;2022-11-20T10:49:13;20.40;;;13.80;;
51838;SDS011;37886;53.174;6.368;2022-11-20T10:55:01;16.00;;;11.80;;
51838;SDS011;37886;53.174;6.368;2022-11-20T11:00:35;17.35;;;12.98;;
51838;SDS011;37886;53.174;6.368;2022-11-20T11:03:00;16.50;;;12.02;;
51838;SDS011;37886;53.174;6.368;2022-11-20T11:08:02;16.35;;;11.93;;
51838;SDS011;37886;53.174;6.368;2022-11-20T11:13:06;18.23;;;11.60;;
51838;SDS011;37886;53.174;6.368;2022-11-20T11:15:37;18.65;;;13.07;;
51838;SDS011;37886;53.174;6.368;2022-11-20T11:18:05;17.58;;;12.75;;
51838;SDS011;37886;53.174;6.368;2022-11-20T11:20:34;18.80;;;12.07;;
51838;SDS011;37886;53.174;6.368;2022-11-20T11:23:01;20.30;;;12.90;;
51838;SDS011;37886;53.174;6.368;2022-11-20T11:25:31;15.93;;;11.63;;
51838;SDS011;37886;53.174;6.368;2022-11-20T11:28:05;15.70;;;10.82;;
51838;SDS011;37886;53.174;6.368;2022-11-20T11:30:46;18.08;;;11.70;;
51838;SDS011;37886;53.174;6.368;2022-11-20T11:33:24;16.38;;;12.13;;
51838;SDS011;37886;53.174;6.368;2022-11-20T11:36:01;14.83;;;10.00;;
51838;SDS011;37886;53.174;6.368;2022-11-20T11:38:40;17.90;;;13.02;;
51838;SDS011;37886;53.174;6.368;2022-11-20T11:41:19;16.80;;;12.52;;
51838;SDS011;37886;53.174;6.368;2022-11-20T11:43:52;13.27;;;9.63;;
51838;SDS011;37886;53.174;6.368;2022-11-20T11:46:43;12.40;;;9.85;;
51838;SDS011;37886;53.174;6.368;2022-11-20T11:49:20;12.27;;;8.95;;
51838;SDS011;37886;53.174;6.368;2022-11-20T11:52:03;10.35;;;8.30;;
51838;SDS011;37886;53.174;6.368;2022-11-20T11:57:43;11.85;;;8.70;;
51838;SDS011;37886;53.174;6.368;2022-11-20T12:00:22;11.70;;;8.07;;
51838;SDS011;37886;53.174;6.368;2022-11-20T12:02:52;12.13;;;8.68;;
51838;SDS011;37886;53.174;6.368;2022-11-20T12:05:28;11.20;;;8.50;;
51838;SDS011;37886;53.174;6.368;2022-11-20T12:08:26;8.93;;;7.22;;
51838;SDS011;37886;53.174;6.368;2022-11-20T12:11:13;8.60;;;7.30;;
51838;SDS011;37886;53.174;6.368;2022-11-20T12:14:20;10.90;;;8.63;;
51838;SDS011;37886;53.174;6.368;2022-11-20T12:16:51;9.00;;;7.38;;
51838;SDS011;37886;53.174;6.368;2022-11-20T12:19:18;9.57;;;7.60;;
51838;SDS011;37886;53.174;6.368;2022-11-20T12:24:43;7.15;;;5.85;;
51838;SDS011;37886;53.174;6.368;2022-11-20T12:27:51;7.72;;;5.88;;
51838;SDS011;37886;53.174;6.368;2022-11-20T12:30:27;6.00;;;5.40;;
51838;SDS011;37886;53.174;6.368;2022-11-20T12:41:31;9.40;;;6.70;;
51838;SDS011;37886;53.174;6.368;2022-11-20T12:53:10;10.10;;;6.25;;
51838;SDS011;37886;53.174;6.368;2022-11-20T13:01:29;13.70;;;7.53;;
51838;SDS011;37886;53.174;6.368;2022-11-20T13:07:07;10.00;;;7.65;;
51838;SDS011;37886;53.174;6.368;2022-11-20T13:09:38;7.90;;;6.18;;
51838;SDS011;37886;53.174;6.368;2022-11-20T13:17:18;10.75;;;7.60;;
51838;SDS011;37886;53.174;6.368;2022-11-20T13:19:55;13.25;;;6.95;;
51838;SDS011;37886;53.174;6.368;2022-11-20T13:22:27;9.18;;;7.32;;
51838;SDS011;37886;53.174;6.368;2022-11-20T13:25:25;9.02;;;6.55;;
51838;SDS011;37886;53.174;6.368;2022-11-20T13:27:57;8.68;;;6.38;;
51838;SDS011;37886;53.174;6.368;2022-11-20T13:30:25;8.52;;;6.78;;
51838;SDS011;37886;53.174;6.368;2022-11-20T13:35:24;9.27;;;6.55;;
51838;SDS011;37886;53.174;6.368;2022-11-20T13:40:37;13.18;;;6.43;;
51838;SDS011;37886;53.174;6.368;2022-11-20T13:46:08;9.07;;;6.57;;
51838;SDS011;37886;53.174;6.368;2022-11-20T13:48:45;7.13;;;6.22;;
51838;SDS011;37886;53.174;6.368;2022-11-20T14:02:08;11.80;;;7.70;;
51838;SDS011;37886;53.174;6.368;2022-11-20T14:04:38;10.23;;;7.80;;
51838;SDS011;37886;53.174;6.368;2022-11-20T14:07:11;13.18;;;8.48;;
51838;SDS011;37886;53.174;6.368;2022-11-20T14:09:37;12.85;;;8.52;;
51838;SDS011;37886;53.174;6.368;2022-11-20T14:12:03;12.57;;;8.55;;
51838;SDS011;37886;53.174;6.368;2022-11-20T14:14:46;13.30;;;8.23;;
51838;SDS011;37886;53.174;6.368;2022-11-20T14:17:30;9.77;;;7.18;;
51838;SDS011;37886;53.174;6.368;2022-11-20T14:20:02;10.45;;;7.53;;
51838;SDS011;37886;53.174;6.368;2022-11-20T14:22:36;11.40;;;7.40;;
51838;SDS011;37886;53.174;6.368;2022-11-20T14:25:03;10.05;;;7.47;;
51838;SDS011;37886;53.174;6.368;2022-11-20T14:27:39;9.45;;;7.40;;
51838;SDS011;37886;53.174;6.368;2022-11-20T14:30:12;8.85;;;6.97;;
51838;SDS011;37886;53.174;6.368;2022-11-20T14:32:38;8.80;;;6.90;;
51838;SDS011;37886;53.174;6.368;2022-11-20T14:35:08;11.10;;;7.18;;
51838;SDS011;37886;53.174;6.368;2022-11-20T14:37:38;10.35;;;6.70;;
51838;SDS011;37886;53.174;6.368;2022-11-20T14:40:21;8.02;;;6.40;;
51838;SDS011;37886;53.174;6.368;2022-11-20T14:42:53;9.52;;;6.28;;
51838;SDS011;37886;53.174;6.368;2022-11-20T14:45:19;7.85;;;6.35;;
51838;SDS011;37886;53.174;6.368;2022-11-20T14:47:45;10.07;;;7.00;;
51838;SDS011;37886;53.174;6.368;2022-11-20T14:50:19;9.95;;;7.88;;
51838;SDS011;37886;53.174;6.368;2022-11-20T14:52:52;10.18;;;8.20;;
51838;SDS011;37886;53.174;6.368;2022-11-20T14:58:00;12.95;;;8.88;;
51838;SDS011;37886;53.174;6.368;2022-11-20T15:00:28;14.30;;;9.68;;
51838;SDS011;37886;53.174;6.368;2022-11-20T15:02:55;13.80;;;9.85;;
51838;SDS011;37886;53.174;6.368;2022-11-20T15:05:23;17.58;;;12.32;;
51838;SDS011;37886;53.174;6.368;2022-11-20T15:08:12;17.80;;;12.60;;
51838;SDS011;37886;53.174;6.368;2022-11-20T15:10:37;17.42;;;10.82;;
51838;SDS011;37886;53.174;6.368;2022-11-20T15:13:18;14.40;;;9.23;;
51838;SDS011;37886;53.174;6.368;2022-11-20T15:15:55;11.65;;;9.25;;
51838;SDS011;37886;53.174;6.368;2022-11-20T15:20:49;14.57;;;9.98;;
51838;SDS011;37886;53.174;6.368;2022-11-20T15:23:16;13.65;;;9.68;;
51838;SDS011;37886;53.174;6.368;2022-11-20T15:25:43;15.60;;;9.77;;
51838;SDS011;37886;53.174;6.368;2022-11-20T15:28:17;12.68;;;9.13;;
51838;SDS011;37886;53.174;6.368;2022-11-20T15:30:58;12.25;;;9.20;;
51838;SDS011;37886;53.174;6.368;2022-11-20T15:33:28;12.30;;;9.17;;
51838;SDS011;37886;53.174;6.368;2022-11-20T15:35:57;12.50;;;9.10;;
51838;SDS011;37886;53.174;6.368;2022-11-20T15:38:26;13.02;;;10.07;;
51838;SDS011;37886;53.174;6.368;2022-11-20T15:40:52;16.92;;;9.88;;
51838;SDS011;37886;53.174;6.368;2022-11-20T15:43:18;15.82;;;10.48;;
51838;SDS011;37886;53.174;6.368;2022-11-20T15:45:45;13.93;;;10.02;;
51838;SDS011;37886;53.174;6.368;2022-11-20T15:48:16;14.70;;;9.93;;
51838;SDS011;37886;53.174;6.368;2022-11-20T15:50:57;16.70;;;11.52;;
51838;SDS011;37886;53.174;6.368;2022-11-20T15:53:38;14.90;;;10.85;;
51838;SDS011;37886;53.174;6.368;2022-11-20T15:56:05;14.40;;;10.82;;
51838;SDS011;37886;53.174;6.368;2022-11-20T15:58:34;17.92;;;11.98;;
51838;SDS011;37886;53.174;6.368;2022-11-20T16:00:59;19.77;;;11.23;;
51838;SDS011;37886;53.174;6.368;2022-11-20T16:03:25;16.27;;;11.30;;
51838;SDS011;37886;53.174;6.368;2022-11-20T16:05:51;15.57;;;11.63;;
51838;SDS011;37886;53.174;6.368;2022-11-20T16:08:16;12.68;;;9.82;;
51838;SDS011;37886;53.174;6.368;2022-11-20T16:10:42;15.32;;;10.27;;
51838;SDS011;37886;53.174;6.368;2022-11-20T16:13:12;16.77;;;11.55;;
51838;SDS011;37886;53.174;6.368;2022-11-20T16:15:58;14.98;;;10.65;;
51838;SDS011;37886;53.174;6.368;2022-11-20T16:18:26;14.52;;;10.88;;
51838;SDS011;37886;53.174;6.368;2022-11-20T16:20:53;16.77;;;10.85;;
51838;SDS011;37886;53.174;6.368;2022-11-20T16:23:19;15.98;;;11.52;;
51838;SDS011;37886;53.174;6.368;2022-11-20T16:25:46;16.40;;;11.73;;
51838;SDS011;37886;53.174;6.368;2022-11-20T16:28:12;16.58;;;10.30;;